Time;durP1;ratioP1;P1;durP2;ratioP2;P2;SDS_P1;SDS_P2;PMS_P1;PMS_P2;Temp;Humidity;BMP_temperature;BMP_pressure;BME280_temperature;BME280_humidity;BME280_pressure;Samples;Min_cycle;Max_cycle;Signal;HPM_P1;HPM_P2
2024/01/21 00:01:58;;;;;;;1.40;1.20;;;21.40;44.60;;;;;;4957924;28;88513;-61
2024/01/21 00:04:24;;;;;;;1.80;1.30;;;21.40;44.80;;;;;;4955445;28;86123;-61
2024/01/21 00:06:50;;;;;;;1.60;1.48;;;21.30;44.80;;;;;;4956673;28;87568;-61
2024/01/21 00:09:15;;;;;;;2.00;1.33;;;21.30;44.90;;;;;;4958083;28;86385;-61
2024/01/21 00:11:41;;;;;;;1.60;1.50;;;21.30;44.60;;;;;;4955436;28;87129;-61
2024/01/21 00:14:07;;;;;;;2.03;1.35;;;21.30;44.90;;;;;;4954369;28;86809;-57
2024/01/21 00:16:33;;;;;;;1.30;1.10;;;21.20;44.90;;;;;;4956726;28;86360;-61
2024/01/21 00:18:59;;;;;;;1.60;1.40;;;21.20;44.70;;;;;;4959319;28;87621;-60
2024/01/21 00:21:25;;;;;;;2.13;1.45;;;21.20;44.70;;;;;;4956576;28;86157;-61
2024/01/21 00:23:51;;;;;;;1.70;1.30;;;21.10;44.80;;;;;;4954689;28;85913;-61
2024/01/21 00:26:17;;;;;;;1.73;1.45;;;21.10;44.90;;;;;;4959894;28;86268;-61
2024/01/21 00:28:43;;;;;;;1.30;1.10;;;21.10;44.90;;;;;;4961569;28;86877;-61
2024/01/21 00:31:09;;;;;;;1.33;0.82;;;21.10;44.70;;;;;;4958676;28;87352;-61
2024/01/21 00:33:35;;;;;;;1.90;1.48;;;21.10;44.90;;;;;;4961331;28;86754;-61
2024/01/21 00:36:01;;;;;;;1.33;1.17;;;21.00;44.90;;;;;;4960225;28;86472;-61
2024/01/21 00:38:27;;;;;;;1.83;1.10;;;21.00;45.00;;;;;;4959012;28;88139;-61
2024/01/21 00:40:53;;;;;;;1.60;1.10;;;21.00;45.00;;;;;;4959289;28;87262;-60
2024/01/21 00:43:19;;;;;;;1.30;1.20;;;21.00;44.80;;;;;;4959681;28;86130;-61
2024/01/21 00:45:45;;;;;;;2.50;1.10;;;21.00;44.80;;;;;;4959876;28;86330;-61
2024/01/21 00:48:11;;;;;;;1.17;0.90;;;20.90;45.00;;;;;;4992461;28;87798;-61
2024/01/21 00:50:36;;;;;;;1.67;1.15;;;20.90;44.70;;;;;;4961729;28;86488;-61
2024/01/21 00:53:03;;;;;;;2.00;1.15;;;20.90;44.80;;;;;;4958168;28;86124;-61
2024/01/21 00:55:28;;;;;;;1.60;1.30;;;20.90;44.90;;;;;;4962625;28;85932;-61
2024/01/21 00:57:54;;;;;;;1.30;1.00;;;20.80;44.70;;;;;;4961873;28;87392;-61
2024/01/21 01:00:25;;;;;;;1.25;1.10;;;20.80;44.90;;;;;;4962814;28;86422;-60
2024/01/21 01:02:51;;;;;;;1.52;1.20;;;20.80;44.90;;;;;;4962341;28;85807;-61
2024/01/21 01:05:17;;;;;;;1.80;1.50;;;20.80;44.70;;;;;;4940142;28;86404;-61
2024/01/21 01:07:44;;;;;;;2.22;1.42;;;20.80;44.80;;;;;;4960345;28;87328;-61
2024/01/21 01:10:10;;;;;;;1.45;1.00;;;20.70;44.70;;;;;;4961736;28;86936;-61
2024/01/21 01:12:36;;;;;;;1.85;1.33;;;20.70;44.90;;;;;;4962311;28;86120;-60
2024/01/21 01:15:02;;;;;;;1.52;1.10;;;20.70;45.00;;;;;;4954143;28;86483;-61
2024/01/21 01:17:28;;;;;;;1.70;1.10;;;20.70;45.00;;;;;;4958553;28;86640;-61
2024/01/21 01:19:54;;;;;;;1.10;1.00;;;20.70;45.10;;;;;;4959047;28;86155;-60
2024/01/21 01:22:19;;;;;;;1.60;1.33;;;20.60;45.10;;;;;;4959750;28;86543;-60
2024/01/21 01:24:45;;;;;;;1.50;1.35;;;20.60;45.20;;;;;;4960772;28;86465;-63
2024/01/21 01:27:11;;;;;;;1.70;1.10;;;20.60;45.10;;;;;;4958043;28;88063;-63
2024/01/21 01:29:38;;;;;;;0.93;0.82;;;20.60;45.20;;;;;;4974794;28;88383;-64
2024/01/21 01:32:05;;;;;;;2.30;1.13;;;20.60;45.10;;;;;;4957402;28;86397;-63
2024/01/21 01:34:31;;;;;;;1.60;0.98;;;20.60;45.20;;;;;;4958601;28;86393;-63
2024/01/21 01:36:57;;;;;;;1.90;1.30;;;20.50;45.30;;;;;;4958905;28;86974;-63
2024/01/21 01:39:23;;;;;;;1.42;1.25;;;20.50;45.20;;;;;;4988161;28;88772;-63
2024/01/21 01:41:49;;;;;;;1.30;0.90;;;20.50;45.20;;;;;;4956168;28;86501;-63
2024/01/21 01:44:15;;;;;;;1.35;1.25;;;20.50;45.10;;;;;;4990282;28;86907;-63
2024/01/21 01:46:41;;;;;;;1.63;1.35;;;20.50;45.20;;;;;;4958226;28;88187;-63
2024/01/21 01:49:07;;;;;;;2.15;1.45;;;20.40;44.90;;;;;;4958111;28;86504;-64
2024/01/21 01:51:36;;;;;;;2.83;1.00;;;20.40;44.90;;;;;;4956905;28;86680;-63
2024/01/21 01:54:03;;;;;;;1.30;1.13;;;20.40;44.90;;;;;;4958099;28;85713;-63
2024/01/21 01:56:29;;;;;;;1.63;1.20;;;20.40;45.00;;;;;;4960903;28;88392;-63
2024/01/21 01:58:58;;;;;;;1.80;1.17;;;20.40;44.90;;;;;;4958201;28;87476;-63
2024/01/21 02:01:24;;;;;;;1.40;1.13;;;20.40;44.80;;;;;;4957510;28;86255;-63
2024/01/21 02:03:50;;;;;;;1.38;1.00;;;20.40;44.90;;;;;;4974636;28;86146;-63
2024/01/21 02:06:16;;;;;;;1.55;1.42;;;20.30;45.00;;;;;;4960207;28;86133;-63
2024/01/21 02:08:42;;;;;;;2.75;1.25;;;20.30;44.80;;;;;;4959335;28;87079;-63
2024/01/21 02:11:07;;;;;;;1.35;1.02;;;20.30;45.00;;;;;;4955128;28;86439;-63
2024/01/21 02:13:34;;;;;;;1.13;0.95;;;20.20;45.00;;;;;;4959343;28;86346;-63
2024/01/21 02:16:01;;;;;;;1.75;1.23;;;20.20;44.90;;;;;;4957616;28;87899;-62
2024/01/21 02:18:28;;;;;;;2.20;1.50;;;20.20;44.90;;;;;;4959221;28;85944;-63
2024/01/21 02:20:54;;;;;;;1.20;1.00;;;20.20;44.90;;;;;;4956961;28;86466;-63
2024/01/21 02:23:19;;;;;;;0.98;0.85;;;20.20;44.90;;;;;;4956262;28;86470;-63
2024/01/21 02:25:45;;;;;;;1.45;0.95;;;20.20;44.90;;;;;;4991032;28;87751;-63
2024/01/21 02:28:11;;;;;;;1.17;1.08;;;20.20;45.00;;;;;;4954441;28;86159;-63
2024/01/21 02:30:41;;;;;;;1.75;1.23;;;20.20;45.00;;;;;;4957026;28;85717;-63
2024/01/21 02:33:07;;;;;;;1.67;1.50;;;20.10;45.00;;;;;;4958527;28;86770;-63
2024/01/21 02:35:32;;;;;;;1.55;1.15;;;20.10;45.00;;;;;;4959391;28;88782;-64
2024/01/21 02:37:58;;;;;;;3.30;1.50;;;20.20;45.10;;;;;;4958358;28;89125;-63
2024/01/21 02:40:24;;;;;;;1.20;1.10;;;20.10;45.00;;;;;;4963010;28;85909;-63
2024/01/21 02:42:49;;;;;;;1.10;0.98;;;20.10;45.00;;;;;;4961669;28;86679;-63
2024/01/21 02:45:15;;;;;;;1.48;1.00;;;20.10;44.90;;;;;;4958201;28;86107;-63
2024/01/21 02:47:41;;;;;;;1.75;0.95;;;20.10;44.80;;;;;;4957572;28;86186;-63
2024/01/21 02:50:07;;;;;;;1.17;1.08;;;20.10;44.90;;;;;;4955102;28;86553;-64
2024/01/21 02:52:33;;;;;;;1.02;0.93;;;20.10;44.80;;;;;;4963705;28;86245;-63
2024/01/21 02:54:59;;;;;;;3.33;1.23;;;20.10;44.60;;;;;;4960845;28;86449;-63
2024/01/21 02:57:25;;;;;;;1.30;1.02;;;20.00;44.70;;;;;;4958713;28;87889;-63
2024/01/21 02:59:51;;;;;;;1.05;0.95;;;20.00;44.60;;;;;;4954897;28;86353;-63
2024/01/21 03:02:16;;;;;;;1.88;1.20;;;20.00;44.50;;;;;;4954622;28;86105;-63
2024/01/21 03:04:42;;;;;;;1.33;1.10;;;20.00;44.60;;;;;;4960420;28;87843;-62
2024/01/21 03:07:07;;;;;;;1.10;1.00;;;20.00;44.70;;;;;;4954157;28;86477;-62
2024/01/21 03:09:33;;;;;;;1.63;1.13;;;20.00;44.80;;;;;;4954560;28;86339;-62
2024/01/21 03:11:59;;;;;;;1.23;1.13;;;19.90;44.50;;;;;;4955792;28;86777;-62
2024/01/21 03:14:24;;;;;;;1.40;1.00;;;19.90;44.60;;;;;;4959132;28;86842;-62
2024/01/21 03:16:50;;;;;;;1.20;0.98;;;19.90;44.70;;;;;;4959535;28;86653;-61
2024/01/21 03:19:16;;;;;;;1.10;1.00;;;19.90;44.70;;;;;;4960891;28;86032;-61
2024/01/21 03:21:42;;;;;;;1.15;1.05;;;19.90;44.60;;;;;;4959521;28;86293;-62
2024/01/21 03:24:08;;;;;;;2.28;1.23;;;19.90;44.80;;;;;;4955751;28;86132;-62
2024/01/21 03:26:34;;;;;;;1.35;1.08;;;19.90;44.70;;;;;;4955359;28;87463;-61
2024/01/21 03:29:01;;;;;;;1.45;1.13;;;19.90;44.70;;;;;;4956753;28;86566;-62
2024/01/21 03:31:28;;;;;;;1.92;1.13;;;19.90;44.70;;;;;;4959632;28;85911;-62
2024/01/21 03:33:53;;;;;;;1.05;0.93;;;19.80;44.50;;;;;;4956333;28;88960;-61
2024/01/21 03:36:19;;;;;;;1.52;1.00;;;19.80;44.60;;;;;;4961355;28;87094;-62
2024/01/21 03:38:46;;;;;;;2.15;1.30;;;19.80;44.60;;;;;;4958394;28;86156;-62
2024/01/21 03:41:12;;;;;;;1.65;1.00;;;19.80;44.60;;;;;;4957162;28;86621;-60
2024/01/21 03:43:39;;;;;;;1.45;1.17;;;19.80;44.70;;;;;;4958225;28;86899;-62
2024/01/21 03:46:04;;;;;;;1.48;1.10;;;19.80;44.50;;;;;;4970044;28;87278;-62
2024/01/21 03:48:30;;;;;;;1.63;1.20;;;19.80;44.60;;;;;;4959355;28;86125;-62
2024/01/21 03:50:56;;;;;;;1.70;1.45;;;19.80;44.50;;;;;;4958571;28;85999;-62
2024/01/21 03:53:22;;;;;;;0.98;0.98;;;19.80;45.30;;;;;;4957099;28;87243;-62
2024/01/21 03:55:48;;;;;;;0.98;0.88;;;19.80;44.70;;;;;;4958692;28;86357;-61
2024/01/21 03:58:14;;;;;;;1.02;0.82;;;19.80;44.80;;;;;;4962117;28;86101;-62
2024/01/21 04:00:40;;;;;;;1.15;1.05;;;19.70;44.60;;;;;;4961804;28;86159;-60
2024/01/21 04:03:05;;;;;;;1.67;1.23;;;19.70;44.60;;;;;;4960063;28;88298;-61
2024/01/21 04:05:31;;;;;;;1.33;1.13;;;19.70;44.70;;;;;;4958641;28;87471;-61
2024/01/21 04:07:59;;;;;;;1.50;1.20;;;19.70;44.60;;;;;;4960316;28;86649;-62
2024/01/21 04:10:25;;;;;;;0.93;0.85;;;19.70;44.60;;;;;;4961442;28;86155;-62
2024/01/21 04:12:51;;;;;;;0.80;0.80;;;19.70;44.80;;;;;;4958937;28;88766;-61
2024/01/21 04:15:18;;;;;;;1.30;1.20;;;19.70;44.70;;;;;;4956457;28;89361;-62
2024/01/21 04:17:44;;;;;;;1.20;0.93;;;19.60;44.60;;;;;;4943757;28;86286;-61
2024/01/21 04:20:10;;;;;;;1.60;0.93;;;19.70;44.60;;;;;;4963132;28;86107;-62
2024/01/21 04:22:36;;;;;;;1.13;1.00;;;19.60;44.60;;;;;;4961273;28;87003;-62
2024/01/21 04:25:02;;;;;;;2.00;1.00;;;19.60;44.50;;;;;;4956450;28;88313;-62
2024/01/21 04:27:28;;;;;;;1.13;1.00;;;19.60;44.60;;;;;;4947628;28;87305;-62
2024/01/21 04:29:54;;;;;;;2.15;1.10;;;19.60;44.20;;;;;;4979005;28;86465;-62
2024/01/21 04:32:19;;;;;;;1.38;1.27;;;19.60;44.60;;;;;;4961038;28;86546;-62
2024/01/21 04:34:45;;;;;;;1.55;1.00;;;19.60;44.60;;;;;;4963281;28;87106;-62
2024/01/21 04:37:12;;;;;;;1.08;0.93;;;19.60;44.60;;;;;;4963563;28;86702;-62
2024/01/21 04:39:38;;;;;;;1.60;1.25;;;19.60;44.60;;;;;;4973868;28;85918;-62
2024/01/21 04:42:04;;;;;;;1.83;0.90;;;19.60;44.60;;;;;;4957371;28;88368;-61
2024/01/21 04:44:30;;;;;;;1.20;1.10;;;19.50;44.50;;;;;;4960063;28;86285;-62
2024/01/21 04:46:56;;;;;;;1.38;1.13;;;19.50;44.40;;;;;;4958349;28;86186;-61
2024/01/21 04:49:22;;;;;;;1.63;1.00;;;19.50;44.40;;;;;;4977035;28;86424;-61
2024/01/21 04:51:48;;;;;;;1.45;1.17;;;19.50;44.60;;;;;;4959625;28;86393;-62
2024/01/21 04:54:15;;;;;;;1.05;0.95;;;19.50;44.70;;;;;;4957051;28;88164;-62
2024/01/21 04:56:41;;;;;;;1.25;1.08;;;19.50;44.60;;;;;;4956356;28;85912;-62
2024/01/21 04:59:09;;;;;;;1.48;1.25;;;19.50;44.70;;;;;;4960591;28;85613;-62
2024/01/21 05:01:35;;;;;;;1.77;1.30;;;19.50;44.50;;;;;;4959773;28;88841;-62
2024/01/21 05:04:01;;;;;;;1.30;1.15;;;19.50;44.70;;;;;;4957238;28;86680;-61
2024/01/21 05:06:27;;;;;;;1.13;0.90;;;19.50;44.50;;;;;;4960409;28;86668;-62
2024/01/21 05:08:52;;;;;;;1.42;1.25;;;19.40;44.40;;;;;;4959316;28;86608;-61
2024/01/21 05:11:18;;;;;;;1.40;1.10;;;19.50;44.40;;;;;;4959407;28;86513;-62
2024/01/21 05:13:44;;;;;;;1.20;1.05;;;19.40;44.40;;;;;;4960655;28;86994;-62
2024/01/21 05:16:10;;;;;;;1.80;1.35;;;19.40;44.50;;;;;;4953530;28;86367;-62
2024/01/21 05:18:39;;;;;;;1.33;1.10;;;19.40;44.50;;;;;;4959876;28;86524;-62
2024/01/21 05:21:05;;;;;;;1.45;1.23;;;19.40;44.30;;;;;;4960605;28;87110;-62
2024/01/21 05:23:32;;;;;;;1.13;1.02;;;19.40;44.40;;;;;;4959762;28;86791;-62
2024/01/21 05:26:00;;;;;;;1.00;0.90;;;19.40;44.40;;;;;;4973868;28;86873;-62
2024/01/21 05:28:26;;;;;;;2.65;1.08;;;19.40;44.30;;;;;;4957326;28;86357;-61
2024/01/21 05:30:51;;;;;;;1.30;1.02;;;19.40;44.40;;;;;;4959716;28;86755;-61
2024/01/21 05:33:17;;;;;;;1.48;1.10;;;19.40;44.40;;;;;;4958558;28;86337;-62
2024/01/21 05:35:43;;;;;;;1.30;1.10;;;19.40;44.50;;;;;;4957118;28;86372;-62
2024/01/21 05:38:08;;;;;;;1.75;1.10;;;19.40;44.60;;;;;;4959020;28;85664;-62
2024/01/21 05:40:35;;;;;;;1.10;1.00;;;19.40;44.60;;;;;;4959959;28;86168;-61
2024/01/21 05:43:01;;;;;;;1.13;0.90;;;19.40;44.60;;;;;;4960474;28;86375;-61
2024/01/21 05:45:27;;;;;;;1.52;1.20;;;19.40;44.40;;;;;;4960063;28;86149;-62
2024/01/21 05:47:53;;;;;;;1.42;1.08;;;19.40;44.20;;;;;;4961519;28;85783;-62
2024/01/21 05:50:19;;;;;;;1.38;1.02;;;19.40;44.20;;;;;;4961254;28;87369;-62
2024/01/21 05:52:44;;;;;;;1.33;1.20;;;19.40;44.40;;;;;;4959723;28;86436;-62
2024/01/21 05:55:10;;;;;;;1.10;1.00;;;19.30;44.30;;;;;;4960607;28;86336;-61
2024/01/21 05:57:36;;;;;;;1.67;1.20;;;19.40;44.50;;;;;;4958925;28;86033;-62
2024/01/21 06:00:03;;;;;;;1.88;1.40;;;19.30;44.30;;;;;;4957602;28;86413;-62
2024/01/21 06:02:28;;;;;;;1.10;1.00;;;19.30;44.30;;;;;;4959085;28;87626;-61
2024/01/21 06:04:54;;;;;;;1.38;1.05;;;19.30;44.30;;;;;;4961352;28;86060;-62
2024/01/21 06:07:22;;;;;;;1.00;0.80;;;19.30;44.20;;;;;;4960577;28;86073;-62
2024/01/21 06:09:48;;;;;;;2.05;1.20;;;19.30;44.20;;;;;;4974199;28;88174;-62
2024/01/21 06:12:54;;;;;;;1.27;1.00;;;19.30;44.30;;;;;;4958841;28;89445;-62
2024/01/21 06:15:21;;;;;;;1.20;1.02;;;19.30;44.20;;;;;;4959593;28;85791;-61
2024/01/21 06:17:49;;;;;;;1.40;1.30;;;19.30;44.20;;;;;;4958058;28;86159;-62
2024/01/21 06:20:15;;;;;;;0.95;0.85;;;19.30;44.20;;;;;;4955662;28;87889;-61
2024/01/21 06:22:41;;;;;;;1.20;1.10;;;19.30;44.30;;;;;;4957154;28;90117;-61
2024/01/21 06:25:07;;;;;;;1.30;1.10;;;19.30;44.20;;;;;;4956620;28;86391;-61
2024/01/21 06:27:33;;;;;;;2.05;1.30;;;19.30;44.20;;;;;;4959522;28;86145;-62
2024/01/21 06:30:21;;;;;;;1.65;1.10;;;19.30;44.40;;;;;;4956607;28;89305;-61
2024/01/21 06:32:47;;;;;;;1.13;0.95;;;19.30;44.40;;;;;;4959011;28;86374;-61
2024/01/21 06:35:13;;;;;;;1.65;1.02;;;19.30;44.40;;;;;;4961925;28;86237;-61
2024/01/21 06:37:38;;;;;;;1.17;1.00;;;19.30;44.40;;;;;;4957061;28;85824;-62
2024/01/21 06:40:05;;;;;;;1.27;1.10;;;19.20;44.40;;;;;;4958513;28;87167;-62
2024/01/21 06:42:30;;;;;;;1.02;0.93;;;19.30;44.30;;;;;;4955725;28;86010;-62
2024/01/21 06:44:56;;;;;;;1.40;1.30;;;19.20;44.30;;;;;;4960143;28;86454;-62
2024/01/21 06:47:22;;;;;;;1.02;0.93;;;19.20;44.10;;;;;;4957058;28;86728;-62
2024/01/21 06:49:49;;;;;;;1.05;0.82;;;19.30;44.30;;;;;;4955228;28;86791;-62
2024/01/21 06:52:15;;;;;;;1.10;0.85;;;19.30;44.30;;;;;;4956237;28;87729;-61
2024/01/21 06:54:41;;;;;;;0.98;0.80;;;19.20;44.30;;;;;;4955991;28;86145;-62
2024/01/21 06:57:07;;;;;;;1.20;0.90;;;19.20;44.10;;;;;;4961605;28;85845;-61
2024/01/21 06:59:33;;;;;;;0.88;0.88;;;19.30;44.30;;;;;;4956517;28;86805;-62
2024/01/21 07:01:59;;;;;;;1.33;1.00;;;19.20;44.30;;;;;;4970574;28;86423;-62
2024/01/21 07:04:25;;;;;;;1.40;1.13;;;19.20;44.00;;;;;;4958884;28;86277;-62
2024/01/21 07:06:52;;;;;;;1.00;0.90;;;19.20;44.30;;;;;;4956011;28;86260;-61
2024/01/21 07:09:18;;;;;;;1.38;1.10;;;19.20;44.30;;;;;;4957809;28;89174;-61
2024/01/21 07:11:44;;;;;;;1.15;0.98;;;19.20;44.30;;;;;;4941904;28;87323;-61
2024/01/21 07:14:10;;;;;;;1.23;1.00;;;19.20;44.30;;;;;;4955610;28;86376;-61
2024/01/21 07:16:36;;;;;;;1.00;0.90;;;19.20;44.30;;;;;;4961659;28;86328;-62
2024/01/21 07:19:03;;;;;;;1.55;1.20;;;19.20;44.40;;;;;;4989889;28;88483;-62
2024/01/21 07:21:28;;;;;;;1.10;0.98;;;19.20;44.40;;;;;;4960201;28;87096;-62
2024/01/21 07:23:54;;;;;;;1.20;1.10;;;19.20;44.20;;;;;;4959457;28;86519;-62
2024/01/21 07:26:23;;;;;;;1.42;0.93;;;19.20;44.30;;;;;;4957400;28;86180;-62
2024/01/21 07:28:49;;;;;;;1.40;0.93;;;19.20;44.20;;;;;;4958576;28;87571;-61
2024/01/21 07:31:15;;;;;;;1.02;0.93;;;19.20;44.00;;;;;;4951610;28;86094;-61
2024/01/21 07:33:40;;;;;;;2.50;1.30;;;19.20;43.90;;;;;;4955489;28;86296;-61
2024/01/21 07:36:06;;;;;;;1.77;1.40;;;19.20;43.70;;;;;;4957588;28;86655;-61
2024/01/21 07:38:32;;;;;;;102.30;19.10;;;19.20;43.90;;;;;;4959136;28;87501;-61
2024/01/21 07:40:58;;;;;;;19.65;5.18;;;19.30;44.00;;;;;;4949559;28;87006;-61
2024/01/21 07:43:24;;;;;;;33.38;7.60;;;19.30;43.70;;;;;;4957485;28;86219;-61
2024/01/21 07:45:50;;;;;;;38.17;7.90;;;19.30;43.90;;;;;;4959830;28;86274;-62
2024/01/21 07:48:17;;;;;;;19.08;5.18;;;19.40;44.10;;;;;;4957852;28;86920;-62
2024/01/21 07:50:43;;;;;;;17.30;3.97;;;19.40;44.20;;;;;;4955453;28;87774;-61
2024/01/21 07:53:08;;;;;;;12.65;3.15;;;19.40;44.30;;;;;;4954481;28;86678;-61
2024/01/21 07:55:34;;;;;;;14.18;4.13;;;19.50;44.50;;;;;;4959130;28;86386;-61
2024/01/21 07:58:01;;;;;;;8.23;3.88;;;19.50;44.60;;;;;;4956871;28;88555;-61
2024/01/21 08:00:27;;;;;;;16.23;3.55;;;19.50;44.80;;;;;;4953461;28;87629;-62
2024/01/21 08:02:52;;;;;;;10.52;3.28;;;19.50;44.70;;;;;;4956524;28;85914;-61
2024/01/21 08:05:18;;;;;;;15.70;3.40;;;19.50;45.30;;;;;;4956202;28;86438;-61
2024/01/21 08:07:45;;;;;;;9.73;3.28;;;19.60;44.60;;;;;;4958355;28;87007;-61
2024/01/21 08:10:11;;;;;;;9.25;2.92;;;19.60;44.80;;;;;;4957410;28;86760;-61
2024/01/21 08:12:36;;;;;;;7.88;2.78;;;19.60;44.90;;;;;;4956829;28;86780;-61
2024/01/21 08:15:03;;;;;;;12.05;2.50;;;19.60;44.90;;;;;;4949289;28;85816;-61
2024/01/21 08:17:28;;;;;;;9.50;2.83;;;19.60;45.00;;;;;;4953554;28;86294;-61
2024/01/21 08:19:54;;;;;;;9.85;2.92;;;19.70;44.90;;;;;;4955277;28;86463;-61
2024/01/21 08:22:20;;;;;;;10.10;3.00;;;19.70;45.00;;;;;;4957560;28;86630;-61
2024/01/21 08:24:51;;;;;;;7.78;2.15;;;19.70;45.10;;;;;;4956334;28;85800;-61
2024/01/21 08:27:17;;;;;;;6.32;2.38;;;19.70;45.10;;;;;;4952276;28;88036;-62
2024/01/21 08:29:42;;;;;;;11.13;2.78;;;19.70;45.20;;;;;;4958154;28;86402;-61
2024/01/21 08:32:09;;;;;;;8.40;3.15;;;19.70;45.20;;;;;;4954599;28;86094;-61
2024/01/21 08:34:36;;;;;;;6.20;2.30;;;19.70;45.40;;;;;;4956858;28;86160;-61
2024/01/21 08:37:01;;;;;;;6.50;2.25;;;19.70;45.30;;;;;;4955000;28;87804;-61
2024/01/21 08:39:27;;;;;;;8.45;2.70;;;19.70;45.30;;;;;;4957375;28;86304;-61
2024/01/21 08:41:53;;;;;;;4.82;2.22;;;19.70;45.30;;;;;;4956546;28;85756;-61
2024/01/21 08:44:19;;;;;;;6.22;2.17;;;19.70;45.40;;;;;;4956769;28;85694;-61
2024/01/21 08:46:45;;;;;;;21.35;4.65;;;19.70;45.70;;;;;;4956913;28;86892;-61
2024/01/21 08:49:11;;;;;;;11.98;2.70;;;19.70;45.60;;;;;;4958910;28;87331;-62
2024/01/21 08:51:37;;;;;;;9.30;2.70;;;19.60;45.60;;;;;;4961814;28;86433;-61
2024/01/21 08:54:03;;;;;;;9.68;3.08;;;19.70;45.70;;;;;;4957918;28;85927;-61
2024/01/21 08:56:29;;;;;;;5.28;2.30;;;19.60;45.60;;;;;;4959328;28;88344;-61
2024/01/21 08:58:55;;;;;;;15.57;2.78;;;19.60;45.50;;;;;;4958491;28;87556;-60
2024/01/21 09:01:21;;;;;;;10.07;3.72;;;19.70;45.60;;;;;;4963993;28;86248;-61
2024/01/21 09:03:47;;;;;;;10.70;2.63;;;19.70;45.60;;;;;;4956509;28;86372;-61
2024/01/21 09:06:13;;;;;;;9.30;2.83;;;19.70;45.50;;;;;;4958945;28;89569;-61
2024/01/21 09:08:39;;;;;;;6.90;2.13;;;19.80;45.40;;;;;;4957598;28;86396;-61
2024/01/21 09:11:05;;;;;;;7.38;2.78;;;19.80;45.60;;;;;;4956054;28;85858;-62
2024/01/21 09:13:32;;;;;;;6.63;1.88;;;19.80;45.50;;;;;;4958775;28;86286;-61
2024/01/21 09:15:58;;;;;;;8.45;2.58;;;19.80;45.30;;;;;;4955646;28;88643;-62
2024/01/21 09:18:23;;;;;;;9.65;2.85;;;19.90;45.30;;;;;;4961812;28;86364;-62
2024/01/21 09:20:49;;;;;;;12.43;3.25;;;19.90;45.50;;;;;;4938555;28;86673;-62
2024/01/21 09:23:15;;;;;;;11.63;3.33;;;19.90;45.40;;;;;;4944621;28;86832;-62
2024/01/21 09:25:41;;;;;;;11.77;3.78;;;19.90;45.50;;;;;;4958587;28;87575;-62
2024/01/21 09:28:07;;;;;;;17.42;3.58;;;19.90;45.50;;;;;;4959653;28;86492;-62
2024/01/21 09:30:33;;;;;;;11.05;3.05;;;20.00;45.40;;;;;;4957363;28;86159;-61
2024/01/21 09:32:58;;;;;;;14.82;3.67;;;20.00;45.10;;;;;;4960960;28;85875;-61
2024/01/21 09:35:25;;;;;;;15.13;3.75;;;20.00;44.80;;;;;;4956805;28;87567;-62
2024/01/21 09:37:50;;;;;;;12.55;3.67;;;20.00;44.80;;;;;;4937089;28;87137;-61
2024/01/21 09:40:17;;;;;;;16.40;3.88;;;20.00;44.50;;;;;;4955995;28;86042;-62
2024/01/21 09:42:44;;;;;;;13.20;3.42;;;20.10;44.20;;;;;;4957858;28;86678;-61
2024/01/21 09:45:10;;;;;;;10.48;3.85;;;20.10;45.20;;;;;;4959866;28;87193;-61
2024/01/21 09:47:43;;;;;;;11.52;3.53;;;20.10;44.20;;;;;;4957841;28;86393;-61
2024/01/21 09:50:10;;;;;;;9.10;3.47;;;20.10;44.40;;;;;;4959845;28;86433;-61
2024/01/21 09:52:37;;;;;;;9.18;3.03;;;20.10;44.60;;;;;;4961816;28;85591;-61
2024/01/21 09:55:03;;;;;;;9.95;2.58;;;20.10;44.50;;;;;;4959467;28;87692;-61
2024/01/21 09:57:30;;;;;;;7.47;2.70;;;20.10;44.90;;;;;;4959003;28;87969;-62
2024/01/21 09:59:57;;;;;;;6.97;2.80;;;20.20;45.00;;;;;;4957966;28;86887;-62
2024/01/21 10:02:26;;;;;;;11.63;3.22;;;20.20;44.80;;;;;;4959533;28;85923;-63
2024/01/21 10:04:52;;;;;;;18.15;4.18;;;20.20;44.70;;;;;;4941152;28;87775;-63
2024/01/21 10:07:18;;;;;;;13.07;4.88;;;20.20;44.40;;;;;;4959819;28;86542;-62
2024/01/21 10:09:53;;;;;;;11.60;3.75;;;20.30;43.40;;;;;;4958305;28;86512;-63
2024/01/21 10:12:22;;;;;;;12.02;3.83;;;20.20;43.50;;;;;;4948562;28;87289;-63
2024/01/21 10:14:48;;;;;;;12.30;4.00;;;20.30;43.80;;;;;;4954326;28;88590;-63
2024/01/21 10:17:14;;;;;;;9.55;3.60;;;20.30;43.90;;;;;;4952075;28;86481;-63
2024/01/21 10:19:40;;;;;;;12.02;4.32;;;20.30;43.70;;;;;;4989337;28;86435;-63
2024/01/21 10:22:10;;;;;;;11.02;4.07;;;20.30;41.30;;;;;;4955268;28;86838;-63
2024/01/21 10:24:40;;;;;;;10.52;4.25;;;20.30;40.00;;;;;;4955114;28;88446;-62
2024/01/21 10:27:07;;;;;;;10.20;4.25;;;20.30;39.60;;;;;;4958774;28;86319;-63
2024/01/21 10:29:40;;;;;;;7.35;4.13;;;20.30;39.70;;;;;;4991689;28;85772;-62
2024/01/21 10:32:10;;;;;;;9.48;4.00;;;20.30;38.90;;;;;;4959723;28;86414;-63
2024/01/21 10:34:43;;;;;;;11.95;4.38;;;20.30;39.10;;;;;;4960534;28;86785;-63
2024/01/21 10:37:08;;;;;;;11.52;4.10;;;20.30;38.70;;;;;;4952337;28;87357;-63
2024/01/21 10:39:37;;;;;;;8.13;3.85;;;20.30;38.80;;;;;;4958739;28;85913;-62
2024/01/21 10:42:05;;;;;;;7.55;3.30;;;20.30;39.10;;;;;;4954416;28;86156;-63
2024/01/21 10:44:33;;;;;;;8.93;3.42;;;20.40;39.30;;;;;;4960791;28;87038;-62
2024/01/21 10:47:02;;;;;;;8.40;3.47;;;20.40;39.60;;;;;;4957410;28;87750;-61
2024/01/21 10:49:30;;;;;;;4.50;2.58;;;20.30;40.20;;;;;;4991379;28;86257;-63
2024/01/21 10:51:55;;;;;;;5.60;2.72;;;20.40;40.80;;;;;;4954324;28;87596;-62
2024/01/21 10:54:24;;;;;;;5.68;2.83;;;20.40;40.50;;;;;;4956195;28;88024;-62
2024/01/21 10:56:50;;;;;;;6.07;2.77;;;20.40;41.00;;;;;;4957045;28;86651;-62
2024/01/21 10:59:16;;;;;;;4.78;2.83;;;20.40;41.40;;;;;;4955063;28;86270;-62
2024/01/21 11:01:43;;;;;;;6.85;3.10;;;20.50;41.70;;;;;;4961906;28;85610;-62
2024/01/21 11:04:12;;;;;;;4.93;3.03;;;20.50;42.00;;;;;;4955542;28;87147;-63
2024/01/21 11:06:44;;;;;;;7.28;2.28;;;20.50;42.40;;;;;;4958414;28;86132;-63
2024/01/21 11:09:10;;;;;;;9.45;2.78;;;20.50;42.20;;;;;;4957035;28;85889;-63
2024/01/21 11:11:56;;;;;;;6.00;2.97;;;20.50;42.30;;;;;;4961240;28;86216;-63
2024/01/21 11:14:36;;;;;;;4.88;2.72;;;20.50;42.70;;;;;;4959535;28;86722;-62
2024/01/21 11:17:04;;;;;;;4.95;2.35;;;20.50;42.70;;;;;;4954261;28;86805;-63
2024/01/21 11:19:51;;;;;;;6.72;2.78;;;20.50;42.50;;;;;;4989586;28;86847;-62
2024/01/21 11:22:23;;;;;;;4.82;2.78;;;20.60;42.60;;;;;;4988598;28;87030;-62
2024/01/21 11:24:51;;;;;;;5.10;2.53;;;20.60;42.80;;;;;;4957079;28;87313;-63
2024/01/21 11:27:22;;;;;;;5.45;2.30;;;20.60;42.80;;;;;;4955976;28;86550;-62
2024/01/21 11:30:00;;;;;;;4.35;2.08;;;20.70;42.90;;;;;;4955724;28;85883;-62
2024/01/21 11:32:28;;;;;;;4.53;2.20;;;20.70;42.90;;;;;;4957592;28;86934;-66
2024/01/21 11:34:55;;;;;;;4.00;1.83;;;20.70;43.40;;;;;;4955366;28;86829;-66
2024/01/21 11:37:22;;;;;;;4.40;2.30;;;20.70;43.10;;;;;;4947742;28;86408;-66
2024/01/21 11:39:49;;;;;;;4.97;2.17;;;20.70;43.50;;;;;;4955773;28;85949;-65
2024/01/21 11:42:16;;;;;;;6.30;2.05;;;20.80;43.60;;;;;;4958342;28;86129;-66
2024/01/21 11:44:41;;;;;;;4.50;2.10;;;20.80;43.50;;;;;;4959356;28;86703;-66
2024/01/21 11:47:08;;;;;;;8.02;2.03;;;20.80;43.50;;;;;;4959076;28;86360;-63
2024/01/21 11:49:35;;;;;;;8.93;2.72;;;20.80;43.50;;;;;;4956711;28;86985;-73
2024/01/21 11:52:06;;;;;;;6.28;2.20;;;20.80;43.80;;;;;;4990326;28;86311;-64
2024/01/21 11:54:33;;;;;;;6.18;2.30;;;20.80;43.70;;;;;;4941867;28;87716;-63
2024/01/21 11:57:00;;;;;;;6.22;2.75;;;20.80;43.70;;;;;;4953633;28;86463;-63
2024/01/21 11:59:26;;;;;;;7.50;2.53;;;20.80;43.50;;;;;;4957153;28;86403;-63
2024/01/21 12:01:54;;;;;;;5.15;2.30;;;20.90;43.80;;;;;;4973434;28;85872;-62
2024/01/21 12:04:20;;;;;;;8.70;2.42;;;20.80;44.00;;;;;;4957006;28;86294;-62
2024/01/21 12:06:48;;;;;;;5.82;2.17;;;20.90;43.90;;;;;;4956124;28;87265;-63
2024/01/21 12:09:14;;;;;;;4.03;2.20;;;20.90;44.10;;;;;;4971443;28;86316;-62
2024/01/21 12:11:40;;;;;;;5.15;2.08;;;20.90;44.00;;;;;;4958918;28;86149;-63
2024/01/21 12:14:14;;;;;;;5.75;2.60;;;20.90;43.90;;;;;;4958287;28;86940;-63
2024/01/21 12:16:40;;;;;;;5.50;2.28;;;20.90;43.90;;;;;;4955507;28;86929;-63
2024/01/21 12:19:06;;;;;;;3.97;2.20;;;21.00;43.90;;;;;;4958152;28;85845;-63
2024/01/21 12:21:33;;;;;;;4.60;2.22;;;21.00;43.80;;;;;;4954155;28;86246;-63
2024/01/21 12:24:00;;;;;;;9.70;2.53;;;21.00;43.80;;;;;;4958512;28;86863;-63
2024/01/21 12:26:27;;;;;;;4.57;2.20;;;21.00;43.80;;;;;;4962009;28;86371;-63
2024/01/21 12:28:57;;;;;;;3.65;2.10;;;21.00;43.90;;;;;;4962288;28;86229;-63
2024/01/21 12:31:27;;;;;;;8.50;2.40;;;21.00;44.00;;;;;;4958578;28;86584;-62
2024/01/21 12:33:54;;;;;;;3.03;2.10;;;21.00;44.00;;;;;;4960123;28;87225;-64
2024/01/21 12:36:20;;;;;;;5.88;2.40;;;21.00;43.90;;;;;;4961278;28;86965;-63
2024/01/21 12:38:49;;;;;;;4.25;2.15;;;21.00;44.30;;;;;;4958308;28;86650;-63
2024/01/21 12:41:15;;;;;;;7.28;2.53;;;21.10;44.20;;;;;;4960016;28;86842;-63
2024/01/21 12:43:42;;;;;;;3.05;2.15;;;21.10;44.30;;;;;;4960203;28;87300;-63